createdAt,value
2022-11-28T00:02:09.888Z,7.73
2022-11-28T00:05:13.535Z,6.63
2022-11-28T00:08:16.700Z,7.00
2022-11-28T00:11:20.300Z,9.83
2022-11-28T00:14:24.779Z,7.50
2022-11-28T00:17:27.722Z,8.53
2022-11-28T00:20:31.622Z,8.40
2022-11-28T00:23:35.447Z,6.03
2022-11-28T00:26:40.558Z,5.77
2022-11-28T00:29:44.866Z,8.37
2022-11-28T00:32:47.805Z,7.77
2022-11-28T00:35:50.963Z,7.03
2022-11-28T00:38:53.972Z,6.53
2022-11-28T00:41:56.912Z,6.03
2022-11-28T00:45:01.206Z,8.90
2022-11-28T00:48:04.336Z,6.33
2022-11-28T00:51:09.467Z,5.30
2022-11-28T00:54:12.576Z,5.63
2022-11-28T00:57:15.488Z,6.33
2022-11-28T01:00:20.966Z,8.60
2022-11-28T01:03:23.900Z,7.33
2022-11-28T01:06:28.633Z,7.23
2022-11-28T01:09:31.583Z,6.83
2022-11-28T01:12:34.550Z,5.20
2022-11-28T01:15:44.092Z,6.20
2022-11-28T01:18:47.101Z,7.77
2022-11-28T01:21:50.441Z,4.73
2022-11-28T01:24:53.522Z,6.33
2022-11-28T01:27:56.475Z,7.40
2022-11-28T01:31:06.452Z,6.07
2022-11-28T01:34:09.498Z,5.40
2022-11-28T01:37:12.452Z,5.47
2022-11-28T01:40:15.717Z,5.63
2022-11-28T01:43:18.892Z,5.07
2022-11-28T01:46:23.186Z,5.13
2022-11-28T01:49:31.010Z,7.20
2022-11-28T01:52:36.846Z,7.23
2022-11-28T01:55:47.588Z,5.93
2022-11-28T01:58:55.577Z,5.30
2022-11-28T02:02:00.009Z,7.23
2022-11-28T02:05:03.596Z,6.33
2022-11-28T02:08:07.010Z,5.30
2022-11-28T02:11:34.090Z,4.60
2022-11-28T02:14:56.467Z,7.77
2022-11-28T02:18:22.712Z,7.17
2022-11-28T02:21:42.977Z,6.33
2022-11-28T02:24:57.269Z,4.70
2022-11-28T02:28:39.001Z,7.03
2022-11-28T02:32:05.260Z,6.60
2022-11-28T02:35:12.939Z,7.70
2022-11-28T02:38:22.844Z,6.23
2022-11-28T02:41:32.244Z,4.47
2022-11-28T02:44:44.131Z,7.80
2022-11-28T02:47:52.001Z,5.90
2022-11-28T02:51:00.606Z,5.23
2022-11-28T02:54:06.595Z,6.83
2022-11-28T02:57:10.024Z,6.97
2022-11-28T03:00:29.855Z,5.93
2022-11-28T03:04:08.408Z,4.73
2022-11-28T03:07:21.106Z,5.60
2022-11-28T03:10:30.427Z,6.83
2022-11-28T03:13:41.306Z,5.60
2022-11-28T03:16:52.413Z,5.23
2022-11-28T03:20:11.728Z,5.90
2022-11-28T03:23:17.299Z,6.87
2022-11-28T03:26:27.875Z,6.93
2022-11-28T03:29:35.788Z,10.23
2022-11-28T03:32:41.335Z,3.93
2022-11-28T03:35:49.289Z,4.67
2022-11-28T03:38:57.773Z,7.60
2022-11-28T03:42:06.080Z,6.20
2022-11-28T03:45:14.085Z,6.77
2022-11-28T03:48:22.400Z,4.43
2022-11-28T03:51:31.959Z,4.27
2022-11-28T03:54:37.417Z,4.13
2022-11-28T03:57:45.775Z,7.33
2022-11-28T04:00:58.456Z,6.77
2022-11-28T04:04:12.122Z,6.07
2022-11-28T04:07:24.884Z,7.37
2022-11-28T04:10:32.735Z,4.10
2022-11-28T04:13:40.840Z,5.63
2022-11-28T04:16:53.987Z,4.47
2022-11-28T04:20:04.808Z,5.40
2022-11-28T04:23:12.771Z,5.77
2022-11-28T04:26:19.448Z,4.73
2022-11-28T04:29:25.280Z,5.17
2022-11-28T04:32:31.051Z,6.70
2022-11-28T04:35:37.305Z,6.43
2022-11-28T04:38:43.370Z,5.67
2022-11-28T04:41:52.784Z,4.80
2022-11-28T04:45:00.125Z,7.27
2022-11-28T04:48:03.579Z,6.77
2022-11-28T04:51:15.853Z,6.77
2022-11-28T04:54:28.424Z,4.83
2022-11-28T04:57:35.700Z,5.47
2022-11-28T05:00:39.298Z,6.13
2022-11-28T05:03:43.026Z,7.03
2022-11-28T05:06:46.249Z,4.47
2022-11-28T05:09:50.811Z,5.27
2022-11-28T05:12:54.112Z,5.27
2022-11-28T05:16:00.700Z,5.60
2022-11-28T05:19:03.716Z,9.27
2022-11-28T05:22:06.656Z,6.40
2022-11-28T05:25:11.230Z,5.63
2022-11-28T05:28:14.156Z,5.63
2022-11-28T05:31:18.913Z,6.33
2022-11-28T05:34:22.066Z,6.50
2022-11-28T05:37:25.425Z,6.67
2022-11-28T05:40:29.752Z,7.37
2022-11-28T05:43:33.165Z,4.87
2022-11-28T05:46:36.149Z,6.83
2022-11-28T05:49:39.117Z,7.03
2022-11-28T05:52:42.050Z,6.80
2022-11-28T05:55:46.997Z,7.93
2022-11-28T05:58:50.688Z,4.80
2022-11-28T06:01:53.711Z,6.50
2022-11-28T06:04:56.758Z,5.90
2022-11-28T06:07:59.814Z,7.30
2022-11-28T06:11:04.185Z,5.80
2022-11-28T06:14:07.120Z,6.63
2022-11-28T06:17:10.146Z,6.43
2022-11-28T06:20:13.478Z,8.93
2022-11-28T06:23:16.431Z,5.87
2022-11-28T06:26:22.823Z,6.63
2022-11-28T06:29:25.827Z,7.60
2022-11-28T06:32:28.806Z,5.70
2022-11-28T06:35:31.860Z,8.97
2022-11-28T06:38:35.598Z,5.37
2022-11-28T06:41:40.178Z,6.50
2022-11-28T06:44:43.145Z,6.43
2022-11-28T06:47:46.119Z,7.83
2022-11-28T06:50:49.632Z,5.80
2022-11-28T06:53:52.589Z,6.70
2022-11-28T06:56:56.869Z,6.60
2022-11-28T07:00:00.043Z,5.90
2022-11-28T07:03:03.188Z,7.43
2022-11-28T07:06:08.561Z,5.97
2022-11-28T07:09:11.554Z,6.30
2022-11-28T07:12:16.228Z,5.80
2022-11-28T07:15:19.272Z,8.80
2022-11-28T07:18:22.219Z,6.83
2022-11-28T07:21:25.760Z,5.80
2022-11-28T07:24:30.053Z,7.13
2022-11-28T07:27:34.338Z,7.00
2022-11-28T07:30:37.373Z,7.83
2022-11-28T07:33:41.387Z,7.57
2022-11-28T07:36:44.393Z,7.30
2022-11-28T07:39:47.630Z,8.23
2022-11-28T07:42:52.230Z,7.33
2022-11-28T07:46:01.086Z,9.23
2022-11-28T07:49:05.251Z,7.07
2022-11-28T07:52:08.212Z,7.63
2022-11-28T07:55:11.185Z,8.67
2022-11-28T07:58:15.489Z,10.40
2022-11-28T08:01:20.414Z,8.67
2022-11-28T08:04:23.821Z,9.03
2022-11-28T08:07:26.937Z,8.60
2022-11-28T08:10:30.200Z,8.43
2022-11-28T08:13:35.028Z,10.33
2022-11-28T08:16:41.199Z,9.93
2022-11-28T08:19:44.209Z,10.50
2022-11-28T08:22:47.223Z,9.10
2022-11-28T08:25:50.194Z,10.00
2022-11-28T08:28:55.189Z,8.80
2022-11-28T08:31:58.155Z,11.27
2022-11-28T08:35:01.111Z,10.13
2022-11-28T08:38:04.584Z,8.43
2022-11-28T08:41:10.565Z,7.87
2022-11-28T08:44:14.903Z,10.60
2022-11-28T08:47:17.897Z,9.20
2022-11-28T08:50:20.869Z,7.13
2022-11-28T08:53:24.120Z,11.27
2022-11-28T08:56:27.086Z,8.20
2022-11-28T08:59:31.409Z,9.10
2022-11-28T09:02:34.405Z,11.47
2022-11-28T09:05:37.370Z,8.57
2022-11-28T09:08:40.368Z,10.33
2022-11-28T09:11:43.366Z,9.10
2022-11-28T09:14:47.665Z,10.40
2022-11-28T09:17:50.638Z,9.87
2022-11-28T09:20:58.720Z,10.57
2022-11-28T09:24:01.662Z,9.13
2022-11-28T09:27:04.719Z,12.13
2022-11-28T09:30:10.456Z,9.93
2022-11-28T09:33:13.547Z,10.53
2022-11-28T09:36:19.051Z,8.57
2022-11-28T09:39:22.099Z,9.03
2022-11-28T09:42:32.985Z,10.37
2022-11-28T09:45:37.332Z,10.07
2022-11-28T09:48:45.830Z,9.23
2022-11-28T09:51:53.815Z,8.37
2022-11-28T09:55:06.282Z,12.40
2022-11-28T09:58:16.513Z,9.13
2022-11-28T10:01:29.038Z,10.90
2022-11-28T10:04:40.674Z,10.87
2022-11-28T10:07:55.429Z,7.90
2022-11-28T10:11:03.647Z,9.33
2022-11-28T10:14:19.603Z,10.47
2022-11-28T10:17:35.007Z,8.90
2022-11-28T10:20:40.496Z,9.10
2022-11-28T10:23:46.188Z,9.80
2022-11-28T10:26:52.172Z,8.27
2022-11-28T10:30:02.182Z,9.07
2022-11-28T10:33:16.819Z,9.37
2022-11-28T10:36:27.523Z,9.03
2022-11-28T10:39:30.551Z,8.63
2022-11-28T10:42:40.938Z,9.50
2022-11-28T10:45:53.756Z,9.10
2022-11-28T10:49:09.612Z,9.50
2022-11-28T10:52:19.709Z,10.20
2022-11-28T10:55:30.848Z,7.60
2022-11-28T10:58:38.604Z,6.63
2022-11-28T11:01:45.997Z,8.20
2022-11-28T11:04:54.287Z,10.23
2022-11-28T11:07:59.467Z,11.70
2022-11-28T11:11:06.497Z,10.40
2022-11-28T11:14:11.872Z,10.27
2022-11-28T11:17:35.920Z,9.43
2022-11-28T11:20:41.362Z,7.60
2022-11-28T11:23:44.931Z,10.30
2022-11-28T11:26:49.968Z,9.00
2022-11-28T11:29:53.869Z,7.73
2022-11-28T11:32:58.260Z,9.40
2022-11-28T11:36:05.059Z,9.03
2022-11-28T11:39:22.317Z,9.23
2022-11-28T11:42:27.686Z,8.27
2022-11-28T11:45:33.321Z,8.60
2022-11-28T11:48:37.941Z,8.93
2022-11-28T11:51:42.261Z,10.47
2022-11-28T11:54:57.282Z,8.17
2022-11-28T11:58:05.650Z,9.73
2022-11-28T12:01:09.607Z,10.90
2022-11-28T12:04:43.902Z,8.23
2022-11-28T12:07:54.984Z,7.77
2022-11-28T12:11:09.409Z,8.03
2022-11-28T12:14:27.505Z,10.83
2022-11-28T12:17:53.377Z,8.70
2022-11-28T12:21:12.227Z,14.23
2022-11-28T12:24:23.014Z,8.00
2022-11-28T12:27:35.294Z,8.07
2022-11-28T12:30:59.510Z,6.77
2022-11-28T12:34:14.598Z,8.83
2022-11-28T12:38:02.629Z,8.47
2022-11-28T12:41:11.227Z,9.10
2022-11-28T12:44:25.806Z,8.40
2022-11-28T12:47:41.274Z,9.83
2022-11-28T12:50:47.999Z,8.53
2022-11-28T12:54:06.302Z,9.23
2022-11-28T12:57:17.990Z,9.30
2022-11-28T13:00:23.301Z,9.63
2022-11-28T13:03:40.966Z,9.03
2022-11-28T13:06:51.116Z,10.70
2022-11-28T13:10:04.016Z,9.03
2022-11-28T13:13:14.034Z,11.43
2022-11-28T13:16:27.263Z,11.00
2022-11-28T13:19:37.747Z,10.63
2022-11-28T13:22:55.932Z,8.63
2022-11-28T13:26:05.590Z,8.60
2022-11-28T13:29:21.091Z,9.50
2022-11-28T13:32:33.174Z,9.47
2022-11-28T13:35:36.849Z,12.97
2022-11-28T13:39:08.133Z,8.60
2022-11-28T13:42:58.928Z,6.27
2022-11-28T13:45:48.125Z,10.27
2022-11-28T13:49:20.558Z,8.07
2022-11-28T13:52:34.084Z,11.17
2022-11-28T13:55:44.644Z,9.83
2022-11-28T13:58:52.776Z,10.10
2022-11-28T14:02:00.732Z,12.17
2022-11-28T14:05:05.146Z,11.77
2022-11-28T14:08:08.417Z,10.40
2022-11-28T14:11:54.231Z,9.93
2022-11-28T14:15:10.272Z,10.70
2022-11-28T14:18:56.781Z,9.10
2022-11-28T14:22:09.136Z,9.27
2022-11-28T14:25:19.459Z,9.33
2022-11-28T14:28:26.957Z,9.47
2022-11-28T14:31:32.840Z,10.93
2022-11-28T14:34:43.404Z,8.47
2022-11-28T14:37:52.817Z,9.93
2022-11-28T14:41:05.998Z,9.30
2022-11-28T14:44:46.325Z,11.77
2022-11-28T14:48:07.933Z,10.13
2022-11-28T14:51:12.228Z,10.00
2022-11-28T14:54:22.719Z,10.97
2022-11-28T14:57:32.541Z,7.20
2022-11-28T15:00:47.210Z,11.03
2022-11-28T15:03:57.947Z,10.60
2022-11-28T15:07:04.172Z,8.33
2022-11-28T15:10:11.168Z,9.83
2022-11-28T15:13:36.336Z,10.67
2022-11-28T15:16:49.662Z,10.83
2022-11-28T15:19:53.959Z,9.23
2022-11-28T15:22:58.298Z,8.87
2022-11-28T15:26:02.171Z,11.70
2022-11-28T15:29:12.508Z,8.93
2022-11-28T15:32:16.603Z,9.30
2022-11-28T15:35:19.767Z,11.07
2022-11-28T15:38:24.708Z,8.33
2022-11-28T15:41:28.827Z,11.97
2022-11-28T15:44:32.485Z,10.17
2022-11-28T15:47:35.831Z,10.00
2022-11-28T15:50:38.818Z,9.80
2022-11-28T15:53:43.116Z,11.60
2022-11-28T15:56:57.504Z,11.33
2022-11-28T16:00:02.947Z,11.60
2022-11-28T16:03:06.620Z,9.03
2022-11-28T16:06:09.860Z,10.93
2022-11-28T16:09:27.661Z,12.77
2022-11-28T16:12:30.956Z,10.97
2022-11-28T16:15:33.981Z,9.33
2022-11-28T16:18:36.976Z,11.33
2022-11-28T16:21:46.062Z,14.27
2022-11-28T16:24:51.802Z,12.13
2022-11-28T16:27:57.294Z,9.80
2022-11-28T16:31:00.973Z,11.47
2022-11-28T16:34:04.400Z,11.13
2022-11-28T16:37:11.781Z,10.77
2022-11-28T16:40:21.601Z,11.37
2022-11-28T16:43:28.041Z,12.00
2022-11-28T16:46:34.851Z,13.50
2022-11-28T16:49:40.315Z,13.73
2022-11-28T16:52:47.098Z,14.27
2022-11-28T16:55:51.737Z,14.73
2022-11-28T16:58:59.578Z,16.10
2022-11-28T17:02:02.808Z,10.37
2022-11-28T17:05:06.304Z,13.23
2022-11-28T17:08:09.461Z,12.53
2022-11-28T17:11:16.590Z,13.77
2022-11-28T17:14:19.544Z,11.80
2022-11-28T17:17:24.278Z,16.20
2022-11-28T17:20:27.385Z,14.37
2022-11-28T17:23:30.820Z,12.67
2022-11-28T17:26:35.129Z,14.00
2022-11-28T17:29:38.084Z,13.47
2022-11-28T17:32:41.031Z,15.63
2022-11-28T17:35:46.933Z,14.40
2022-11-28T17:38:49.859Z,12.53
2022-11-28T17:41:54.346Z,12.90
2022-11-28T17:44:57.264Z,11.93
2022-11-28T17:48:00.211Z,12.93
2022-11-28T17:51:03.701Z,13.70
2022-11-28T17:54:06.954Z,14.80
2022-11-28T17:57:11.353Z,15.50
2022-11-28T18:00:16.717Z,13.20
2022-11-28T18:03:19.925Z,13.90
2022-11-28T18:06:23.691Z,15.83
2022-11-28T18:09:26.677Z,11.80
2022-11-28T18:12:30.970Z,14.93
2022-11-28T18:15:35.639Z,13.53
2022-11-28T18:18:39.482Z,14.27
2022-11-28T18:21:42.410Z,10.93
2022-11-28T18:24:45.353Z,12.43
2022-11-28T18:27:49.662Z,12.57
2022-11-28T18:30:52.583Z,12.50
2022-11-28T18:34:01.644Z,13.30
2022-11-28T18:37:05.317Z,12.00
2022-11-28T18:40:09.709Z,14.10
2022-11-28T18:43:14.098Z,16.83
2022-11-28T18:46:19.278Z,12.10
2022-11-28T18:49:22.341Z,15.73
2022-11-28T18:52:25.368Z,14.57
2022-11-28T18:55:29.603Z,15.40
2022-11-28T18:58:36.337Z,13.37
2022-11-28T19:01:39.296Z,13.80
2022-11-28T19:04:42.277Z,12.30
2022-11-28T19:07:45.229Z,12.07
2022-11-28T19:10:48.243Z,12.93
2022-11-28T19:13:53.905Z,12.30
2022-11-28T19:16:56.880Z,12.33
2022-11-28T19:19:59.852Z,13.33
2022-11-28T19:23:02.950Z,10.70
2022-11-28T19:26:07.810Z,13.83
2022-11-28T19:29:12.640Z,13.97
2022-11-28T19:32:16.933Z,11.03
2022-11-28T19:35:19.884Z,14.13
2022-11-28T19:38:22.795Z,13.53
2022-11-28T19:41:26.038Z,13.57
2022-11-28T19:44:30.572Z,16.17
2022-11-28T19:47:33.496Z,13.40
2022-11-28T19:50:36.463Z,12.33
2022-11-28T19:53:42.216Z,14.17
2022-11-28T19:56:45.288Z,13.63
2022-11-28T19:59:49.582Z,14.57
2022-11-28T20:02:52.509Z,12.40
2022-11-28T20:05:55.809Z,13.30
2022-11-28T20:09:01.492Z,13.37
2022-11-28T20:12:04.797Z,13.47
2022-11-28T20:15:15.194Z,13.47
2022-11-28T20:18:21.010Z,12.57
2022-11-28T20:21:24.148Z,13.20
2022-11-28T20:24:27.087Z,14.60
2022-11-28T20:27:30.149Z,14.63
2022-11-28T20:30:36.868Z,11.00
2022-11-28T20:33:39.944Z,12.00
2022-11-28T20:36:43.218Z,13.23
2022-11-28T20:39:46.679Z,13.33
2022-11-28T20:42:49.760Z,13.73
2022-11-28T20:45:54.111Z,15.10
2022-11-28T20:48:59.039Z,12.97
2022-11-28T20:52:01.984Z,13.47
2022-11-28T20:55:05.535Z,13.53
2022-11-28T20:58:08.583Z,13.37
2022-11-28T21:01:16.668Z,13.97
2022-11-28T21:04:20.210Z,12.70
2022-11-28T21:07:25.163Z,17.43
2022-11-28T21:10:31.822Z,15.93
2022-11-28T21:13:35.179Z,11.40
2022-11-28T21:16:39.496Z,14.17
2022-11-28T21:19:42.919Z,14.77
2022-11-28T21:22:46.093Z,15.13
2022-11-28T21:25:49.043Z,12.57
2022-11-28T21:28:54.348Z,13.33
2022-11-28T21:31:58.667Z,12.73
2022-11-28T21:35:04.601Z,13.13
2022-11-28T21:38:08.621Z,13.17
2022-11-28T21:41:11.659Z,13.33
2022-11-28T21:44:14.604Z,13.23
2022-11-28T21:47:18.897Z,11.70
2022-11-28T21:50:21.922Z,13.70
2022-11-28T21:53:25.279Z,12.67
2022-11-28T21:56:28.474Z,11.57
2022-11-28T21:59:32.445Z,15.77
2022-11-28T22:02:36.817Z,12.70
2022-11-28T22:05:39.857Z,15.17
2022-11-28T22:08:42.992Z,13.27
2022-11-28T22:11:45.948Z,12.90
2022-11-28T22:14:49.244Z,14.17
2022-11-28T22:17:53.926Z,13.17
2022-11-28T22:21:06.492Z,16.00
2022-11-28T22:24:12.409Z,11.27
2022-11-28T22:27:15.667Z,10.93
2022-11-28T22:30:18.638Z,14.67
2022-11-28T22:33:22.933Z,15.10
2022-11-28T22:36:25.904Z,12.00
2022-11-28T22:39:28.952Z,12.97
2022-11-28T22:42:31.984Z,15.67
2022-11-28T22:45:35.064Z,11.97
2022-11-28T22:48:40.114Z,15.13
2022-11-28T22:51:43.292Z,14.70
2022-11-28T22:54:46.484Z,13.67
2022-11-28T22:57:49.648Z,14.33
2022-11-28T23:00:52.623Z,18.10
2022-11-28T23:03:57.676Z,14.07
2022-11-28T23:07:01.045Z,14.80
2022-11-28T23:10:04.602Z,16.13
2022-11-28T23:13:08.027Z,17.77
2022-11-28T23:16:13.403Z,12.73
2022-11-28T23:19:19.928Z,14.20
2022-11-28T23:22:22.911Z,16.23
2022-11-28T23:25:25.878Z,13.00
2022-11-28T23:28:30.030Z,17.00
2022-11-28T23:31:34.454Z,17.07
2022-11-28T23:34:38.744Z,16.60
2022-11-28T23:37:41.770Z,19.10
2022-11-28T23:40:44.858Z,18.03
2022-11-28T23:43:48.173Z,17.70
2022-11-28T23:46:51.299Z,18.07
2022-11-28T23:49:55.595Z,16.20
2022-11-28T23:52:58.556Z,19.27
2022-11-28T23:56:04.444Z,14.83
2022-11-28T23:59:09.284Z,19.10
